createdAt,value
2023-03-02T00:00:02.911Z,24.56
2023-03-02T00:00:13.178Z,24.55
2023-03-02T00:00:23.176Z,24.55
2023-03-02T00:00:33.300Z,24.57
2023-03-02T00:00:43.560Z,24.56
2023-03-02T00:00:53.652Z,24.57
2023-03-02T00:01:03.672Z,24.57
2023-03-02T00:01:13.693Z,24.57
2023-03-02T00:01:23.689Z,24.58
2023-03-02T00:01:33.691Z,24.58
2023-03-02T00:01:43.708Z,24.57
2023-03-02T00:01:53.754Z,24.57
2023-03-02T00:02:03.801Z,24.57
2023-03-02T00:02:13.804Z,24.58
2023-03-02T00:02:23.935Z,24.59
2023-03-02T00:02:33.956Z,24.58
2023-03-02T00:02:44.052Z,24.59
2023-03-02T00:02:54.130Z,24.59
2023-03-02T00:03:04.191Z,24.58
2023-03-02T00:03:14.173Z,24.58
2023-03-02T00:03:24.181Z,24.59
2023-03-02T00:03:34.221Z,24.59
2023-03-02T00:03:44.264Z,24.58
2023-03-02T00:03:54.370Z,24.58
2023-03-02T00:04:04.513Z,24.59
2023-03-02T00:04:14.438Z,24.59
2023-03-02T00:04:24.433Z,24.59
2023-03-02T00:04:34.454Z,24.59
2023-03-02T00:04:44.717Z,24.60
2023-03-02T00:04:54.760Z,24.60
2023-03-02T00:05:04.759Z,24.60
2023-03-02T00:05:14.766Z,24.60
2023-03-02T00:05:24.782Z,24.60
2023-03-02T00:05:34.782Z,24.61
2023-03-02T00:05:44.782Z,24.62
2023-03-02T00:05:54.912Z,24.61
2023-03-02T00:06:04.921Z,24.62
2023-03-02T00:06:14.917Z,24.62
2023-03-02T00:06:25.173Z,24.62
2023-03-02T00:06:35.177Z,24.63
2023-03-02T00:06:45.195Z,24.64
2023-03-02T00:06:55.182Z,24.63
2023-03-02T00:07:05.195Z,24.63
2023-03-02T00:07:15.313Z,24.63
2023-03-02T00:07:25.311Z,24.63
2023-03-02T00:07:35.454Z,24.64
2023-03-02T00:07:45.462Z,24.64
2023-03-02T00:07:55.478Z,24.65
2023-03-02T00:08:05.620Z,24.65
2023-03-02T00:08:15.631Z,24.65
2023-03-02T00:08:25.634Z,24.65
2023-03-02T00:08:35.653Z,24.64
2023-03-02T00:08:45.663Z,24.64
2023-03-02T00:08:55.668Z,24.64
2023-03-02T00:09:05.677Z,24.64
2023-03-02T00:09:15.708Z,24.65
2023-03-02T00:09:25.700Z,24.65
2023-03-02T00:09:35.724Z,24.65
2023-03-02T00:09:45.734Z,24.66
2023-03-02T00:09:55.750Z,24.66
2023-03-02T00:10:05.736Z,24.65
2023-03-02T00:10:15.752Z,24.65
2023-03-02T00:10:25.776Z,24.64
2023-03-02T00:10:35.782Z,24.65
2023-03-02T00:10:45.785Z,24.64
2023-03-02T00:10:55.782Z,24.65
2023-03-02T00:11:05.793Z,24.65
2023-03-02T00:11:15.827Z,24.66
2023-03-02T00:11:25.818Z,24.66
2023-03-02T00:11:35.843Z,24.67
2023-03-02T00:11:45.837Z,24.67
2023-03-02T00:11:55.858Z,24.67
2023-03-02T00:12:05.867Z,24.67
2023-03-02T00:12:15.864Z,24.68
2023-03-02T00:12:25.892Z,24.67
2023-03-02T00:12:35.899Z,24.67
2023-03-02T00:12:45.908Z,24.68
2023-03-02T00:12:55.915Z,24.67
2023-03-02T00:13:05.927Z,24.68
2023-03-02T00:13:15.960Z,24.68
2023-03-02T00:13:25.974Z,24.68
2023-03-02T00:13:35.970Z,24.68
2023-03-02T00:13:45.973Z,24.67
2023-03-02T00:13:55.989Z,24.67
2023-03-02T00:14:06.021Z,24.67
2023-03-02T00:14:16.015Z,24.67
2023-03-02T00:14:26.035Z,24.67
2023-03-02T00:14:36.038Z,24.67
2023-03-02T00:14:46.045Z,24.67
2023-03-02T00:14:56.046Z,24.68
2023-03-02T00:15:06.058Z,24.68
2023-03-02T00:15:16.066Z,24.68
2023-03-02T00:15:26.079Z,24.68
2023-03-02T00:15:36.152Z,24.69
2023-03-02T00:15:46.228Z,24.69
2023-03-02T00:15:56.298Z,24.69
2023-03-02T00:16:06.436Z,24.69
2023-03-02T00:16:16.424Z,24.70
2023-03-02T00:16:26.546Z,24.69
2023-03-02T00:16:36.565Z,24.69
2023-03-02T00:16:46.590Z,24.69
2023-03-02T00:16:56.579Z,24.70
2023-03-02T00:17:06.605Z,24.70
2023-03-02T00:17:16.985Z,24.70
2023-03-02T00:17:26.986Z,24.71
2023-03-02T00:17:37.106Z,24.70
2023-03-02T00:17:47.365Z,24.71
2023-03-02T00:17:57.368Z,24.71
2023-03-02T00:18:07.372Z,24.70
2023-03-02T00:18:17.377Z,24.70
2023-03-02T00:18:27.410Z,24.70
2023-03-02T00:18:37.413Z,24.70
2023-03-02T00:18:47.429Z,24.70
2023-03-02T00:18:57.432Z,24.71
2023-03-02T00:19:07.431Z,24.71
2023-03-02T00:19:17.450Z,24.72
2023-03-02T00:19:27.454Z,24.72
2023-03-02T00:19:37.476Z,24.71
2023-03-02T00:19:47.476Z,24.71
2023-03-02T00:19:57.503Z,24.72
2023-03-02T00:20:07.504Z,24.71
2023-03-02T00:20:17.515Z,24.71
2023-03-02T00:20:27.524Z,24.72
2023-03-02T00:20:37.534Z,24.72
2023-03-02T00:20:47.537Z,24.72
2023-03-02T00:20:57.551Z,24.72
2023-03-02T00:21:07.552Z,24.72
2023-03-02T00:21:17.583Z,24.72
2023-03-02T00:21:27.594Z,24.72
2023-03-02T00:21:37.597Z,24.73
2023-03-02T00:21:47.593Z,24.73
2023-03-02T00:21:57.616Z,24.72
2023-03-02T00:22:09.504Z,24.73
2023-03-02T00:22:17.688Z,24.71
2023-03-02T00:22:27.688Z,24.72
2023-03-02T00:22:37.967Z,24.73
2023-03-02T00:22:47.953Z,24.73
2023-03-02T00:22:57.970Z,24.73
2023-03-02T00:23:07.971Z,24.73
2023-03-02T00:23:17.994Z,24.72
2023-03-02T00:23:27.991Z,24.72
2023-03-02T00:23:38.006Z,24.73
2023-03-02T00:23:48.012Z,24.72
2023-03-02T00:23:58.042Z,24.73
2023-03-02T00:24:08.033Z,24.73
2023-03-02T00:24:18.051Z,24.73
2023-03-02T00:24:28.056Z,24.72
2023-03-02T00:24:38.062Z,24.73
2023-03-02T00:24:48.073Z,24.74
2023-03-02T00:24:58.113Z,24.74
2023-03-02T00:25:08.091Z,24.74
2023-03-02T00:25:18.111Z,24.74
2023-03-02T00:25:28.119Z,24.75
2023-03-02T00:25:38.131Z,24.74
2023-03-02T00:25:48.147Z,24.74
2023-03-02T00:25:58.155Z,24.74
2023-03-02T00:26:08.174Z,24.75
2023-03-02T00:26:18.179Z,24.75
2023-03-02T00:26:28.188Z,24.75
2023-03-02T00:26:38.199Z,24.75
2023-03-02T00:26:48.210Z,24.74
2023-03-02T00:26:58.205Z,24.75
2023-03-02T00:27:08.210Z,24.76
2023-03-02T00:27:18.215Z,24.76
2023-03-02T00:27:28.226Z,24.76
2023-03-02T00:27:38.266Z,24.75
2023-03-02T00:27:48.256Z,24.75
2023-03-02T00:27:58.253Z,24.75
2023-03-02T00:28:08.267Z,24.76
2023-03-02T00:28:18.282Z,24.77
2023-03-02T00:28:28.316Z,24.76
2023-03-02T00:28:38.317Z,24.77
2023-03-02T00:28:48.312Z,24.76
2023-03-02T00:28:58.319Z,24.77
2023-03-02T00:29:08.340Z,24.77
2023-03-02T00:29:18.337Z,24.77
2023-03-02T00:29:28.346Z,24.77
2023-03-02T00:29:38.362Z,24.78
2023-03-02T00:29:48.416Z,24.77
2023-03-02T00:29:58.394Z,24.77
2023-03-02T00:30:08.395Z,24.78
2023-03-02T00:30:18.404Z,24.78
2023-03-02T00:30:28.404Z,24.78
2023-03-02T00:30:38.430Z,24.79
2023-03-02T00:30:48.450Z,24.79
2023-03-02T00:30:58.486Z,24.79
2023-03-02T00:31:08.582Z,24.78
2023-03-02T00:31:18.552Z,24.78
2023-03-02T00:31:28.656Z,24.78
2023-03-02T00:31:38.663Z,24.78
2023-03-02T00:31:48.786Z,24.78
2023-03-02T00:31:58.781Z,24.78
2023-03-02T00:32:08.866Z,24.78
2023-03-02T00:32:18.958Z,24.79
2023-03-02T00:32:29.267Z,24.79
2023-03-02T00:32:39.272Z,24.79
2023-03-02T00:32:49.292Z,24.78
2023-03-02T00:32:59.291Z,24.79
2023-03-02T00:33:09.329Z,24.79
2023-03-02T00:33:19.335Z,24.79
2023-03-02T00:33:29.333Z,24.79
2023-03-02T00:33:39.344Z,24.78
2023-03-02T00:33:49.341Z,24.79
2023-03-02T00:33:59.348Z,24.79
2023-03-02T00:34:09.363Z,24.79
2023-03-02T00:34:19.369Z,24.80
2023-03-02T00:34:29.381Z,24.80
2023-03-02T00:34:39.388Z,24.80
2023-03-02T00:34:49.414Z,24.80
2023-03-02T00:34:59.436Z,24.81
2023-03-02T00:35:09.418Z,24.80
2023-03-02T00:35:19.509Z,24.79
2023-03-02T00:35:29.562Z,24.80
2023-03-02T00:35:39.680Z,24.79
2023-03-02T00:35:49.631Z,24.79
2023-03-02T00:35:59.746Z,24.79
2023-03-02T00:36:09.764Z,24.79
2023-03-02T00:36:19.771Z,24.80
2023-03-02T00:36:29.765Z,24.79
2023-03-02T00:36:40.188Z,24.80
2023-03-02T00:36:49.825Z,24.80
2023-03-02T00:36:59.943Z,24.81
2023-03-02T00:37:09.951Z,24.81
2023-03-02T00:37:19.960Z,24.81
2023-03-02T00:37:29.959Z,24.81
2023-03-02T00:37:40.221Z,24.81
2023-03-02T00:37:50.223Z,24.82
2023-03-02T00:38:00.348Z,24.82
2023-03-02T00:38:10.615Z,24.82
2023-03-02T00:38:20.626Z,24.82
2023-03-02T00:38:30.628Z,24.83
2023-03-02T00:38:40.632Z,24.83
2023-03-02T00:38:50.646Z,24.82
2023-03-02T00:39:00.655Z,24.82
2023-03-02T00:39:10.662Z,24.82
2023-03-02T00:39:20.671Z,24.83
2023-03-02T00:39:30.685Z,24.83
2023-03-02T00:39:40.686Z,24.83
2023-03-02T00:39:50.704Z,24.84
2023-03-02T00:40:00.711Z,24.82
2023-03-02T00:40:10.755Z,24.82
2023-03-02T00:40:20.744Z,24.82
2023-03-02T00:40:30.765Z,24.83
2023-03-02T00:40:40.752Z,24.83
2023-03-02T00:40:50.775Z,24.84
2023-03-02T00:41:00.783Z,24.84
2023-03-02T00:41:10.799Z,24.84
2023-03-02T00:41:20.914Z,24.83
2023-03-02T00:41:30.911Z,24.83
2023-03-02T00:41:40.923Z,24.84
2023-03-02T00:41:50.937Z,24.83
2023-03-02T00:42:00.935Z,24.83
2023-03-02T00:42:11.202Z,24.82
2023-03-02T00:42:21.198Z,24.83
2023-03-02T00:42:31.208Z,24.84
2023-03-02T00:42:41.208Z,24.84
2023-03-02T00:42:51.249Z,24.84
2023-03-02T00:43:01.258Z,24.84
2023-03-02T00:43:11.252Z,24.85
2023-03-02T00:43:21.274Z,24.84
2023-03-02T00:43:31.285Z,24.84
2023-03-02T00:43:41.281Z,24.85
2023-03-02T00:43:51.678Z,24.85
2023-03-02T00:44:01.665Z,24.85
2023-03-02T00:44:11.667Z,24.85
2023-03-02T00:44:21.685Z,24.85
2023-03-02T00:44:31.707Z,24.84
2023-03-02T00:44:41.713Z,24.85
2023-03-02T00:44:51.713Z,24.85
2023-03-02T00:45:01.716Z,24.85
2023-03-02T00:45:11.752Z,24.85
2023-03-02T00:45:21.743Z,24.85
2023-03-02T00:45:31.745Z,24.86
2023-03-02T00:45:41.759Z,24.86
2023-03-02T00:45:51.760Z,24.87
2023-03-02T00:46:01.768Z,24.86
2023-03-02T00:46:11.826Z,24.86
2023-03-02T00:46:21.879Z,24.87
2023-03-02T00:46:32.287Z,24.88
2023-03-02T00:46:42.318Z,24.87
2023-03-02T00:46:52.384Z,24.87
2023-03-02T00:47:02.496Z,24.87
2023-03-02T00:47:12.712Z,24.86
2023-03-02T00:47:22.709Z,24.87
2023-03-02T00:47:32.729Z,24.86
2023-03-02T00:47:42.735Z,24.86
2023-03-02T00:47:52.761Z,24.86
2023-03-02T00:48:02.770Z,24.86
2023-03-02T00:48:12.773Z,24.87
2023-03-02T00:48:22.812Z,24.87
2023-03-02T00:48:32.814Z,24.86
2023-03-02T00:48:42.825Z,24.86
2023-03-02T00:48:52.853Z,24.86
2023-03-02T00:49:02.844Z,24.86
2023-03-02T00:49:12.857Z,24.86
2023-03-02T00:49:22.862Z,24.86
2023-03-02T00:49:32.869Z,24.87
2023-03-02T00:49:42.882Z,24.87
2023-03-02T00:49:52.867Z,24.87
2023-03-02T00:50:03.368Z,24.87
2023-03-02T00:50:13.360Z,24.87
2023-03-02T00:50:23.376Z,24.87
2023-03-02T00:50:33.646Z,24.88
2023-03-02T00:50:43.642Z,24.88
2023-03-02T00:50:53.653Z,24.87
2023-03-02T00:51:03.659Z,24.87
2023-03-02T00:51:13.673Z,24.87
2023-03-02T00:51:23.685Z,24.87
2023-03-02T00:51:33.690Z,24.87
2023-03-02T00:51:43.698Z,24.87
2023-03-02T00:51:53.708Z,24.87
2023-03-02T00:52:03.721Z,24.87
2023-03-02T00:52:13.713Z,24.87
2023-03-02T00:52:23.723Z,24.87
2023-03-02T00:52:33.764Z,24.87
2023-03-02T00:52:43.763Z,24.88
2023-03-02T00:52:53.770Z,24.88
2023-03-02T00:53:03.787Z,24.88
2023-03-02T00:53:13.796Z,24.89
2023-03-02T00:53:23.799Z,24.90
2023-03-02T00:53:33.930Z,24.89
2023-03-02T00:53:43.941Z,24.90
2023-03-02T00:53:53.962Z,24.90
2023-03-02T00:54:03.961Z,24.91
2023-03-02T00:54:14.077Z,24.91
2023-03-02T00:54:24.091Z,24.92
2023-03-02T00:54:34.229Z,24.92
2023-03-02T00:54:44.241Z,24.92
2023-03-02T00:54:54.257Z,24.91
2023-03-02T00:55:04.343Z,24.92
2023-03-02T00:55:14.505Z,24.91
2023-03-02T00:55:24.487Z,24.90
2023-03-02T00:55:34.486Z,24.91
2023-03-02T00:55:44.501Z,24.91
2023-03-02T00:55:54.511Z,24.91
2023-03-02T00:56:04.518Z,24.91
2023-03-02T00:56:14.793Z,24.90
2023-03-02T00:56:24.810Z,24.90
2023-03-02T00:56:35.119Z,24.91
2023-03-02T00:56:44.854Z,24.90
2023-03-02T00:56:54.863Z,24.90
2023-03-02T00:57:04.863Z,24.90
2023-03-02T00:57:14.994Z,24.90
2023-03-02T00:57:24.988Z,24.90
2023-03-02T00:57:34.991Z,24.90
2023-03-02T00:57:44.997Z,24.91
2023-03-02T00:57:55.345Z,24.92
2023-03-02T00:58:05.328Z,24.92
2023-03-02T00:58:15.328Z,24.91
2023-03-02T00:58:25.334Z,24.91
2023-03-02T00:58:35.336Z,24.91
2023-03-02T00:58:45.338Z,24.91
2023-03-02T00:58:55.348Z,24.91
2023-03-02T00:59:05.359Z,24.91
2023-03-02T00:59:15.350Z,24.91
2023-03-02T00:59:25.469Z,24.92
2023-03-02T00:59:35.721Z,24.90
2023-03-02T00:59:45.853Z,24.91
2023-03-02T00:59:55.861Z,24.91
2023-03-02T01:00:06.209Z,24.90
2023-03-02T01:00:16.204Z,24.90
2023-03-02T01:00:26.224Z,24.90
2023-03-02T01:00:36.236Z,24.91
2023-03-02T01:00:46.232Z,24.90
2023-03-02T01:00:56.355Z,24.90
2023-03-02T01:01:06.355Z,24.91
2023-03-02T01:01:18.594Z,24.90
2023-03-02T01:01:26.493Z,24.91
2023-03-02T01:01:36.498Z,24.91
2023-03-02T01:01:46.632Z,24.91
2023-03-02T01:01:56.682Z,24.92
2023-03-02T01:02:06.741Z,24.91
2023-03-02T01:02:16.802Z,24.91
2023-03-02T01:02:26.811Z,24.91
2023-03-02T01:02:36.910Z,24.91
2023-03-02T01:02:46.927Z,24.90
2023-03-02T01:02:57.267Z,24.91
2023-03-02T01:03:07.137Z,24.91
2023-03-02T01:03:17.151Z,24.92
2023-03-02T01:03:27.445Z,24.93
2023-03-02T01:03:37.519Z,24.92
2023-03-02T01:03:47.558Z,24.93
2023-03-02T01:03:57.832Z,24.93
2023-03-02T01:04:07.836Z,24.93
2023-03-02T01:04:17.829Z,24.92
2023-03-02T01:04:27.837Z,24.93
2023-03-02T01:04:37.838Z,24.92
2023-03-02T01:04:47.837Z,24.93
2023-03-02T01:04:57.962Z,24.93
2023-03-02T01:05:08.001Z,24.94
2023-03-02T01:05:17.991Z,24.93
2023-03-02T01:05:27.981Z,24.94
2023-03-02T01:05:38.252Z,24.94
2023-03-02T01:05:48.269Z,24.94
2023-03-02T01:05:58.289Z,24.94
2023-03-02T01:06:08.275Z,24.94
2023-03-02T01:06:18.282Z,24.95
2023-03-02T01:06:28.293Z,24.94
2023-03-02T01:06:38.302Z,24.94
2023-03-02T01:06:48.315Z,24.94
2023-03-02T01:06:58.339Z,24.93
2023-03-02T01:07:08.314Z,24.93
2023-03-02T01:07:18.694Z,24.93
2023-03-02T01:07:28.713Z,24.93
2023-03-02T01:07:38.710Z,24.93
2023-03-02T01:07:48.722Z,24.93
2023-03-02T01:07:58.742Z,24.93
2023-03-02T01:08:08.739Z,24.93
2023-03-02T01:08:18.771Z,24.93
2023-03-02T01:08:28.769Z,24.94
2023-03-02T01:08:38.775Z,24.93
2023-03-02T01:08:48.780Z,24.93
2023-03-02T01:08:59.162Z,24.93
2023-03-02T01:09:09.185Z,24.94
2023-03-02T01:09:19.186Z,24.94
2023-03-02T01:09:29.196Z,24.93
2023-03-02T01:09:39.275Z,24.93
2023-03-02T01:09:49.320Z,24.93
2023-03-02T01:09:59.318Z,24.93
2023-03-02T01:10:09.324Z,24.93
2023-03-02T01:10:19.333Z,24.93
2023-03-02T01:10:29.338Z,24.94
2023-03-02T01:10:39.334Z,24.94
2023-03-02T01:10:49.364Z,24.94
2023-03-02T01:10:59.361Z,24.94
2023-03-02T01:11:09.363Z,24.93
2023-03-02T01:11:19.370Z,24.94
2023-03-02T01:11:29.380Z,24.93
2023-03-02T01:11:39.385Z,24.94
2023-03-02T01:11:49.420Z,24.93
2023-03-02T01:11:59.451Z,24.94
2023-03-02T01:12:09.437Z,24.94
2023-03-02T01:12:19.448Z,24.94
2023-03-02T01:12:29.454Z,24.94
2023-03-02T01:12:39.465Z,24.94
2023-03-02T01:12:49.466Z,24.94
2023-03-02T01:12:59.491Z,24.94
2023-03-02T01:13:09.481Z,24.93
2023-03-02T01:13:19.618Z,24.93
2023-03-02T01:13:29.657Z,24.93
2023-03-02T01:13:39.678Z,24.95
2023-03-02T01:13:49.680Z,24.95
2023-03-02T01:13:59.699Z,24.95
2023-03-02T01:14:09.967Z,24.95
2023-03-02T01:14:19.954Z,24.95
2023-03-02T01:14:29.966Z,24.94
2023-03-02T01:14:39.995Z,24.95
2023-03-02T01:14:50.006Z,24.95
2023-03-02T01:15:00.035Z,24.95
2023-03-02T01:15:10.030Z,24.94
2023-03-02T01:15:20.042Z,24.94
2023-03-02T01:15:30.038Z,24.94
2023-03-02T01:15:40.042Z,24.95
2023-03-02T01:15:50.078Z,24.95
2023-03-02T01:16:00.162Z,24.95
2023-03-02T01:16:10.267Z,24.95
2023-03-02T01:16:20.269Z,24.95
2023-03-02T01:16:30.460Z,24.94
2023-03-02T01:16:40.397Z,24.94
2023-03-02T01:16:50.315Z,24.94
2023-03-02T01:17:00.317Z,24.94
2023-03-02T01:17:10.340Z,24.94
2023-03-02T01:17:20.329Z,24.92
2023-03-02T01:17:30.334Z,24.93
2023-03-02T01:17:40.480Z,24.94
2023-03-02T01:17:50.480Z,24.94
2023-03-02T01:18:00.490Z,24.94
2023-03-02T01:18:12.126Z,24.94
2023-03-02T01:18:20.831Z,24.93
2023-03-02T01:18:30.837Z,24.94
2023-03-02T01:18:40.833Z,24.94
2023-03-02T01:18:50.839Z,24.94
2023-03-02T01:19:00.959Z,24.93
2023-03-02T01:19:10.967Z,24.93
2023-03-02T01:19:20.974Z,24.93
2023-03-02T01:19:30.987Z,24.93
2023-03-02T01:19:41.100Z,24.93
2023-03-02T01:19:51.237Z,24.93
2023-03-02T01:20:01.240Z,24.92
2023-03-02T01:20:11.262Z,24.93
2023-03-02T01:20:21.246Z,24.93
2023-03-02T01:20:31.259Z,24.93
2023-03-02T01:20:41.273Z,24.92
2023-03-02T01:20:51.258Z,24.92
2023-03-02T01:21:01.280Z,24.93
2023-03-02T01:21:11.290Z,24.93
2023-03-02T01:21:21.441Z,24.93
2023-03-02T01:21:31.682Z,24.93
2023-03-02T01:21:41.725Z,24.92
2023-03-02T01:21:51.723Z,24.93
2023-03-02T01:22:01.726Z,24.92
2023-03-02T01:22:11.728Z,24.92
2023-03-02T01:22:21.735Z,24.92
2023-03-02T01:22:31.766Z,24.93
2023-03-02T01:22:41.765Z,24.93
2023-03-02T01:22:51.768Z,24.94
2023-03-02T01:23:01.889Z,24.93
2023-03-02T01:23:12.174Z,24.93
2023-03-02T01:23:22.171Z,24.93
2023-03-02T01:23:32.176Z,24.95
2023-03-02T01:23:42.188Z,24.94
2023-03-02T01:23:52.186Z,24.93
2023-03-02T01:24:02.220Z,24.94
2023-03-02T01:24:12.208Z,24.94
2023-03-02T01:24:22.245Z,24.93
2023-03-02T01:24:32.250Z,24.93
2023-03-02T01:24:42.247Z,24.94
2023-03-02T01:24:52.248Z,24.94
2023-03-02T01:25:02.254Z,24.94
2023-03-02T01:25:12.264Z,24.94
2023-03-02T01:25:22.269Z,24.93
2023-03-02T01:25:32.270Z,24.93
2023-03-02T01:25:42.275Z,24.92
2023-03-02T01:25:52.279Z,24.92
2023-03-02T01:26:02.291Z,24.93
2023-03-02T01:26:12.309Z,24.93
2023-03-02T01:26:22.299Z,24.95
2023-03-02T01:26:32.740Z,24.94
2023-03-02T01:26:42.585Z,24.94
2023-03-02T01:26:52.594Z,24.95
2023-03-02T01:27:02.606Z,24.95
2023-03-02T01:27:12.625Z,24.95
2023-03-02T01:27:22.631Z,24.94
2023-03-02T01:27:32.630Z,24.95
2023-03-02T01:27:42.661Z,24.95
2023-03-02T01:27:52.660Z,24.96
2023-03-02T01:28:02.666Z,24.96
2023-03-02T01:28:12.674Z,24.96
2023-03-02T01:28:22.683Z,24.95
2023-03-02T01:28:32.691Z,24.96
2023-03-02T01:28:42.701Z,24.96
2023-03-02T01:28:52.711Z,24.96
2023-03-02T01:29:02.722Z,24.96
2023-03-02T01:29:12.732Z,24.97
2023-03-02T01:29:22.737Z,24.96
2023-03-02T01:29:32.747Z,24.96
2023-03-02T01:29:42.761Z,24.96
2023-03-02T01:29:52.773Z,24.97
2023-03-02T01:30:02.777Z,24.97
2023-03-02T01:30:12.786Z,24.96
2023-03-02T01:30:22.806Z,24.97
2023-03-02T01:30:32.817Z,24.96
2023-03-02T01:30:42.817Z,24.96
2023-03-02T01:30:52.828Z,24.96
2023-03-02T01:31:02.860Z,24.96
2023-03-02T01:31:12.926Z,24.96
2023-03-02T01:31:22.974Z,24.96
2023-03-02T01:31:33.038Z,24.96
2023-03-02T01:31:43.139Z,24.96
2023-03-02T01:31:53.349Z,24.96
2023-03-02T01:32:03.257Z,24.95
2023-03-02T01:32:13.340Z,24.95
2023-03-02T01:32:23.503Z,24.95
2023-03-02T01:32:33.634Z,24.95
2023-03-02T01:32:43.566Z,24.94
2023-03-02T01:32:53.573Z,24.94
2023-03-02T01:33:03.569Z,24.95
2023-03-02T01:33:13.578Z,24.95
2023-03-02T01:33:23.578Z,24.95
2023-03-02T01:33:33.587Z,24.95
2023-03-02T01:33:43.617Z,24.95
2023-03-02T01:33:53.717Z,24.95
2023-03-02T01:34:03.721Z,24.95
2023-03-02T01:34:13.986Z,24.96
2023-03-02T01:34:24.003Z,24.96
2023-03-02T01:34:34.015Z,24.96
2023-03-02T01:34:44.030Z,24.97
2023-03-02T01:34:54.046Z,24.96
2023-03-02T01:35:04.040Z,24.98
2023-03-02T01:35:14.082Z,24.97
2023-03-02T01:35:24.130Z,24.96
2023-03-02T01:35:34.167Z,24.96
2023-03-02T01:35:44.189Z,24.97
2023-03-02T01:35:54.247Z,24.97
2023-03-02T01:36:04.339Z,24.97
2023-03-02T01:36:14.330Z,24.96
2023-03-02T01:36:24.338Z,24.96
2023-03-02T01:36:34.831Z,24.97
2023-03-02T01:36:44.380Z,24.97
2023-03-02T01:36:54.383Z,24.98
2023-03-02T01:37:04.401Z,24.98
2023-03-02T01:37:14.418Z,24.97
2023-03-02T01:37:24.420Z,24.97
2023-03-02T01:37:34.426Z,24.98
2023-03-02T01:37:44.481Z,24.99
2023-03-02T01:37:54.470Z,24.99
2023-03-02T01:38:04.605Z,24.99
2023-03-02T01:38:14.536Z,25.00
2023-03-02T01:38:24.682Z,25.00
2023-03-02T01:38:34.661Z,24.98
2023-03-02T01:38:44.744Z,24.99
2023-03-02T01:38:54.877Z,24.99
2023-03-02T01:39:04.808Z,24.99
2023-03-02T01:39:14.808Z,24.98
2023-03-02T01:39:25.081Z,24.99
2023-03-02T01:39:35.087Z,25.00
2023-03-02T01:39:45.153Z,25.00
2023-03-02T01:39:55.532Z,25.00
2023-03-02T01:40:05.542Z,25.01
2023-03-02T01:40:15.564Z,25.00
2023-03-02T01:40:25.574Z,24.99
2023-03-02T01:40:35.576Z,25.00
2023-03-02T01:40:45.585Z,24.99
2023-03-02T01:40:55.597Z,25.00
2023-03-02T01:41:05.609Z,24.98
2023-03-02T01:41:15.610Z,24.98
2023-03-02T01:41:25.617Z,24.97
2023-03-02T01:41:35.640Z,24.97
2023-03-02T01:41:45.645Z,24.97
2023-03-02T01:41:55.653Z,24.97
2023-03-02T01:42:05.697Z,24.98
2023-03-02T01:42:15.711Z,24.98
2023-03-02T01:42:25.717Z,24.99
2023-03-02T01:42:35.729Z,24.98
2023-03-02T01:42:45.763Z,24.99
2023-03-02T01:42:55.753Z,24.99
2023-03-02T01:43:05.750Z,25.00
2023-03-02T01:43:15.873Z,25.00
2023-03-02T01:43:25.889Z,25.00
2023-03-02T01:43:36.002Z,24.99
2023-03-02T01:43:46.004Z,25.00
2023-03-02T01:43:56.139Z,25.00
2023-03-02T01:44:06.140Z,24.99
2023-03-02T01:44:16.143Z,24.99
2023-03-02T01:44:26.153Z,24.99
2023-03-02T01:44:36.172Z,24.99
2023-03-02T01:44:46.165Z,24.99
2023-03-02T01:44:56.282Z,24.99
2023-03-02T01:45:06.292Z,25.00
2023-03-02T01:45:16.301Z,25.00
2023-03-02T01:45:26.345Z,25.00
2023-03-02T01:45:36.674Z,25.00
2023-03-02T01:45:46.749Z,24.99
2023-03-02T01:45:56.801Z,25.00
2023-03-02T01:46:06.856Z,25.00
2023-03-02T01:46:16.877Z,25.00
2023-03-02T01:46:26.869Z,24.99
2023-03-02T01:46:36.882Z,25.00
2023-03-02T01:46:46.878Z,25.00
2023-03-02T01:46:56.994Z,24.99
2023-03-02T01:47:07.003Z,25.00
2023-03-02T01:47:17.267Z,25.00
2023-03-02T01:47:27.270Z,24.99
2023-03-02T01:47:37.267Z,24.98
2023-03-02T01:47:47.271Z,24.99
2023-03-02T01:47:57.281Z,25.00
2023-03-02T01:48:07.282Z,25.00
2023-03-02T01:48:17.398Z,25.00
2023-03-02T01:48:27.406Z,24.99
2023-03-02T01:48:37.445Z,24.99
2023-03-02T01:48:47.483Z,25.01
2023-03-02T01:48:57.736Z,25.00
2023-03-02T01:49:07.736Z,25.01
2023-03-02T01:49:17.856Z,25.01
2023-03-02T01:49:28.132Z,25.01
2023-03-02T01:49:38.146Z,25.02
2023-03-02T01:49:48.150Z,25.00
2023-03-02T01:49:58.527Z,25.01
2023-03-02T01:50:08.527Z,25.01
2023-03-02T01:50:18.600Z,25.00
2023-03-02T01:50:28.587Z,25.00
2023-03-02T01:50:38.603Z,25.00
2023-03-02T01:50:48.611Z,25.00
2023-03-02T01:50:58.621Z,25.00
2023-03-02T01:51:08.625Z,24.99
2023-03-02T01:51:18.747Z,25.00
2023-03-02T01:51:28.789Z,25.00
2023-03-02T01:51:39.052Z,25.01
2023-03-02T01:51:49.045Z,25.00
2023-03-02T01:51:59.066Z,25.00
2023-03-02T01:52:09.060Z,25.01
2023-03-02T01:52:19.078Z,25.00
2023-03-02T01:52:29.074Z,25.00
2023-03-02T01:52:39.133Z,24.99
2023-03-02T01:52:49.144Z,24.98
2023-03-02T01:52:59.156Z,24.99
2023-03-02T01:53:09.157Z,24.99
2023-03-02T01:53:19.538Z,25.00
2023-03-02T01:53:29.554Z,25.00
2023-03-02T01:53:39.557Z,25.00
2023-03-02T01:53:49.640Z,25.00
2023-03-02T01:53:59.626Z,25.00
2023-03-02T01:54:09.629Z,25.01
2023-03-02T01:54:19.747Z,25.01
2023-03-02T01:54:29.768Z,25.00
2023-03-02T01:54:39.762Z,25.01
2023-03-02T01:54:49.908Z,24.99
2023-03-02T01:55:00.115Z,25.00
2023-03-02T01:55:10.092Z,24.99
2023-03-02T01:55:20.097Z,25.00
2023-03-02T01:55:30.096Z,24.99
2023-03-02T01:55:40.232Z,25.00
2023-03-02T01:55:50.229Z,25.00
2023-03-02T01:56:00.354Z,25.00
2023-03-02T01:56:10.354Z,24.99
2023-03-02T01:56:20.480Z,24.99
2023-03-02T01:56:30.960Z,25.00
2023-03-02T01:56:40.744Z,24.99
2023-03-02T01:56:50.731Z,25.00
2023-03-02T01:57:00.743Z,25.00
2023-03-02T01:57:10.741Z,25.00
2023-03-02T01:57:20.747Z,25.00
2023-03-02T01:57:30.753Z,25.00
2023-03-02T01:57:40.758Z,25.00
2023-03-02T01:57:50.771Z,25.01
2023-03-02T01:58:00.889Z,25.00
2023-03-02T01:58:10.892Z,25.00
2023-03-02T01:58:21.153Z,25.01
2023-03-02T01:58:31.170Z,25.01
2023-03-02T01:58:41.159Z,25.01
2023-03-02T01:58:51.160Z,25.02
2023-03-02T01:59:01.175Z,25.01
2023-03-02T01:59:11.174Z,25.00
2023-03-02T01:59:21.180Z,25.01
2023-03-02T01:59:31.198Z,25.01
2023-03-02T01:59:41.203Z,25.01
2023-03-02T01:59:51.204Z,25.00
2023-03-02T02:00:01.205Z,25.00
2023-03-02T02:00:11.218Z,25.00
2023-03-02T02:00:21.219Z,25.00
2023-03-02T02:00:31.220Z,25.01
2023-03-02T02:00:41.388Z,25.02
2023-03-02T02:00:51.422Z,25.01
2023-03-02T02:01:01.487Z,25.01
2023-03-02T02:01:11.729Z,25.00
2023-03-02T02:01:21.880Z,25.00
2023-03-02T02:01:31.777Z,25.01
2023-03-02T02:01:41.777Z,25.01
2023-03-02T02:01:51.794Z,25.00
2023-03-02T02:02:01.788Z,25.00
2023-03-02T02:02:11.791Z,25.00
2023-03-02T02:02:21.797Z,25.00
2023-03-02T02:02:31.804Z,24.99
2023-03-02T02:02:41.846Z,25.00
2023-03-02T02:02:51.863Z,24.99
2023-03-02T02:03:01.858Z,24.99
2023-03-02T02:03:11.892Z,24.98
2023-03-02T02:03:21.902Z,24.99
2023-03-02T02:03:31.914Z,25.00
2023-03-02T02:03:42.063Z,25.00
2023-03-02T02:03:52.156Z,25.00
2023-03-02T02:04:02.343Z,25.00
2023-03-02T02:04:12.391Z,25.00
2023-03-02T02:04:22.455Z,25.00
2023-03-02T02:04:32.741Z,25.00
2023-03-02T02:04:42.751Z,25.00
2023-03-02T02:04:52.765Z,25.00
2023-03-02T02:05:02.773Z,25.01
2023-03-02T02:05:12.882Z,25.00
2023-03-02T02:05:22.907Z,25.01
2023-03-02T02:05:32.902Z,25.01
2023-03-02T02:05:42.911Z,25.01
2023-03-02T02:05:52.915Z,25.01
2023-03-02T02:06:02.916Z,25.00
2023-03-02T02:06:12.928Z,25.01
2023-03-02T02:06:22.933Z,25.01
2023-03-02T02:06:33.448Z,25.01
2023-03-02T02:06:43.061Z,25.01
2023-03-02T02:06:53.062Z,25.02
2023-03-02T02:07:03.077Z,25.02
2023-03-02T02:07:13.079Z,25.03
2023-03-02T02:07:23.336Z,25.03
2023-03-02T02:07:33.333Z,25.02
2023-03-02T02:07:43.335Z,25.02
2023-03-02T02:07:53.352Z,25.02
2023-03-02T02:08:03.354Z,25.02
2023-03-02T02:08:13.357Z,25.02
2023-03-02T02:08:23.477Z,25.02
2023-03-02T02:08:33.489Z,25.02
2023-03-02T02:08:43.493Z,25.02
2023-03-02T02:08:53.487Z,25.02
2023-03-02T02:09:03.746Z,25.02
2023-03-02T02:09:13.752Z,25.03